createdAt,value
2018-12-06T00:00:51.240Z,95759.11
2018-12-06T00:01:53.685Z,95758.81
2018-12-06T00:02:56.139Z,95754.12
2018-12-06T00:03:58.593Z,95741.38
2018-12-06T00:05:01.040Z,95745.56
2018-12-06T00:06:03.597Z,95740.50
2018-12-06T00:07:06.036Z,95744.44
2018-12-06T00:08:15.323Z,95747.97
2018-12-06T00:09:17.776Z,95759.91
2018-12-06T00:10:20.224Z,95744.83
2018-12-06T00:11:22.749Z,95733.37
2018-12-06T00:12:25.193Z,95747.31
2018-12-06T00:13:27.697Z,95753.45
2018-12-06T00:14:30.224Z,95742.55
2018-12-06T00:15:32.672Z,95741.57
2018-12-06T00:16:35.132Z,95747.17
2018-12-06T00:17:37.718Z,95751.13
2018-12-06T00:18:40.149Z,95740.33
2018-12-06T00:19:42.612Z,95736.80
2018-12-06T00:20:45.049Z,95734.61
2018-12-06T00:21:47.510Z,95739.85
2018-12-06T00:22:49.964Z,95724.10
2018-12-06T00:23:52.403Z,95726.36
2018-12-06T00:24:54.869Z,95731.23
2018-12-06T00:25:57.325Z,95736.69
2018-12-06T00:26:59.980Z,95747.34
2018-12-06T00:28:02.428Z,95735.77
2018-12-06T00:29:04.873Z,95734.25
2018-12-06T00:30:19.159Z,95731.84
2018-12-06T00:31:21.612Z,95741.41
2018-12-06T00:32:24.088Z,95734.61
2018-12-06T00:33:26.529Z,95717.41
2018-12-06T00:34:28.979Z,95716.65
2018-12-06T00:35:31.526Z,95710.77
2018-12-06T00:36:33.990Z,95711.28
2018-12-06T00:37:36.428Z,95720.45
2018-12-06T00:38:38.876Z,95750.58
2018-12-06T00:39:41.327Z,95772.05
2018-12-06T00:40:43.863Z,95787.06
2018-12-06T00:41:46.323Z,95797.36
2018-12-06T00:42:48.762Z,95788.05
2018-12-06T00:43:51.207Z,95788.45
2018-12-06T00:44:57.612Z,95775.42
2018-12-06T00:46:00.063Z,95775.45
2018-12-06T00:47:02.516Z,95779.60
2018-12-06T00:48:04.952Z,95768.09
2018-12-06T00:49:07.415Z,95767.52
2018-12-06T00:50:09.943Z,95765.38
2018-12-06T00:51:12.412Z,95771.45
2018-12-06T00:52:14.867Z,95770.34
2018-12-06T00:53:17.311Z,95766.33
2018-12-06T00:54:19.744Z,95774.55
2018-12-06T00:55:22.189Z,95781.31
2018-12-06T00:56:24.662Z,95775.59
2018-12-06T00:57:27.116Z,95773.60
2018-12-06T00:58:29.555Z,95778.08
2018-12-06T00:59:31.997Z,95777.89
2018-12-06T01:00:34.429Z,95780.00
2018-12-06T01:01:36.887Z,95782.00
2018-12-06T01:02:39.344Z,95795.47
2018-12-06T01:03:41.820Z,95797.72
2018-12-06T01:04:44.259Z,95801.03
2018-12-06T01:05:46.719Z,95815.11
2018-12-06T01:06:49.223Z,95824.13
2018-12-06T01:07:51.671Z,95835.95
2018-12-06T01:08:54.124Z,95837.34
2018-12-06T01:09:56.560Z,95842.68
2018-12-06T01:10:58.996Z,95839.15
2018-12-06T01:12:01.549Z,95838.61
2018-12-06T01:13:04.013Z,95843.23
2018-12-06T01:14:06.463Z,95844.90
2018-12-06T01:15:08.975Z,95845.30
2018-12-06T01:16:11.420Z,95838.24
2018-12-06T01:17:13.892Z,95838.64
2018-12-06T01:18:16.434Z,95838.30
2018-12-06T01:19:18.859Z,95843.58
2018-12-06T01:20:21.299Z,95843.44
2018-12-06T01:21:23.749Z,95837.28
2018-12-06T01:22:26.213Z,95844.09
2018-12-06T01:23:28.659Z,95834.40
2018-12-06T01:24:31.183Z,95834.03
2018-12-06T01:25:33.633Z,95825.84
2018-12-06T01:26:36.080Z,95821.51
2018-12-06T01:27:38.533Z,95826.75
2018-12-06T01:28:40.983Z,95825.53
2018-12-06T01:29:43.434Z,95833.39
2018-12-06T01:30:45.882Z,95821.12
2018-12-06T01:31:48.349Z,95826.23
2018-12-06T01:32:50.818Z,95813.25
2018-12-06T01:33:53.330Z,95813.69
2018-12-06T01:34:55.909Z,95810.44
2018-12-06T01:35:58.448Z,95802.19
2018-12-06T01:37:00.896Z,95814.66
2018-12-06T01:38:03.355Z,95819.56
2018-12-06T01:39:06.683Z,95814.36
2018-12-06T01:40:09.215Z,95808.97
2018-12-06T01:41:11.668Z,95815.89
2018-12-06T01:42:14.113Z,95825.39
2018-12-06T01:43:16.575Z,95819.48
2018-12-06T01:44:19.020Z,95816.95
2018-12-06T01:45:21.480Z,95808.08
2018-12-06T01:46:23.923Z,95809.34
2018-12-06T01:47:26.388Z,95818.30
2018-12-06T01:48:28.928Z,95823.75
2018-12-06T01:49:31.368Z,95813.20
2018-12-06T01:50:33.814Z,95816.23
2018-12-06T01:51:36.249Z,95821.72
2018-12-06T01:52:38.696Z,95829.07
2018-12-06T01:53:41.156Z,95824.30
2018-12-06T01:54:43.630Z,95817.23
2018-12-06T01:55:46.071Z,95827.72
2018-12-06T01:56:48.515Z,95834.66
2018-12-06T01:57:50.963Z,95833.35
2018-12-06T01:58:53.439Z,95832.08
2018-12-06T01:59:55.929Z,95835.09
2018-12-06T02:00:58.385Z,95837.93
2018-12-06T02:02:00.819Z,95844.33
2018-12-06T02:03:03.276Z,95844.19
2018-12-06T02:04:05.735Z,95848.12
2018-12-06T02:05:08.263Z,95842.30
2018-12-06T02:06:10.710Z,95843.86
2018-12-06T02:07:13.172Z,95848.03
2018-12-06T02:08:15.615Z,95846.42
2018-12-06T02:09:18.108Z,95847.58
2018-12-06T02:10:20.616Z,95841.67
2018-12-06T02:11:23.052Z,95847.49
2018-12-06T02:12:25.489Z,95840.45
2018-12-06T02:13:27.940Z,95832.61
2018-12-06T02:14:30.409Z,95833.22
2018-12-06T02:15:32.839Z,95834.38
2018-12-06T02:16:35.296Z,95829.69
2018-12-06T02:17:37.736Z,95826.33
2018-12-06T02:18:40.197Z,95826.14
2018-12-06T02:19:42.652Z,95828.00
2018-12-06T02:20:45.112Z,95832.48
2018-12-06T02:21:47.560Z,95827.45
2018-12-06T02:22:50.008Z,95833.64
2018-12-06T02:23:52.452Z,95826.94
2018-12-06T02:24:54.912Z,95832.55
2018-12-06T02:25:57.376Z,95830.11
2018-12-06T02:26:59.822Z,95828.03
2018-12-06T02:28:02.371Z,95824.70
2018-12-06T02:29:04.823Z,95829.00
2018-12-06T02:30:07.436Z,95829.34
2018-12-06T02:31:09.892Z,95828.95
2018-12-06T02:32:12.334Z,95826.33
2018-12-06T02:33:14.787Z,95822.39
2018-12-06T02:34:17.228Z,95822.39
2018-12-06T02:35:19.698Z,95824.09
2018-12-06T02:36:22.164Z,95818.84
2018-12-06T02:37:24.599Z,95820.90
2018-12-06T02:38:27.033Z,95819.19
2018-12-06T02:39:29.467Z,95821.17
2018-12-06T02:40:32.250Z,95819.80
2018-12-06T02:41:34.716Z,95820.94
2018-12-06T02:42:37.169Z,95818.50
2018-12-06T02:43:39.612Z,95815.36
2018-12-06T02:44:42.048Z,95818.34
2018-12-06T02:45:44.523Z,95816.27
2018-12-06T02:46:46.969Z,95817.40
2018-12-06T02:47:49.405Z,95817.42
2018-12-06T02:48:51.834Z,95815.95
2018-12-06T02:49:54.283Z,95816.91
2018-12-06T02:50:56.745Z,95817.14
2018-12-06T02:51:59.186Z,95813.27
2018-12-06T02:53:01.626Z,95816.44
2018-12-06T02:54:04.121Z,95807.23
2018-12-06T02:55:06.656Z,95809.48
2018-12-06T02:56:09.122Z,95812.72
2018-12-06T02:57:11.565Z,95810.41
2018-12-06T02:58:14.016Z,95803.45
2018-12-06T02:59:16.455Z,95800.77
2018-12-06T03:00:18.918Z,95806.78
2018-12-06T03:01:21.362Z,95797.75
2018-12-06T03:02:23.803Z,95788.95
2018-12-06T03:03:32.698Z,95783.74
2018-12-06T03:04:35.572Z,95780.48
2018-12-06T03:05:38.711Z,95777.83
2018-12-06T03:06:43.242Z,95772.25
2018-12-06T03:07:45.776Z,95773.63
2018-12-06T03:08:48.207Z,95772.55
2018-12-06T03:09:50.651Z,95764.71
2018-12-06T03:10:53.103Z,95770.20
2018-12-06T03:11:58.009Z,95768.73
2018-12-06T03:13:00.746Z,95772.69
2018-12-06T03:14:05.682Z,95762.04
2018-12-06T03:15:08.250Z,95756.82
2018-12-06T03:16:10.839Z,95753.27
2018-12-06T03:17:13.321Z,95758.13
2018-12-06T03:18:15.768Z,95753.63
2018-12-06T03:19:18.209Z,95760.75
2018-12-06T03:20:20.666Z,95756.11
2018-12-06T03:21:26.606Z,95751.81
2018-12-06T03:22:31.316Z,95757.81
2018-12-06T03:23:33.763Z,95760.44
2018-12-06T03:24:36.208Z,95756.72
2018-12-06T03:25:38.686Z,95752.78
2018-12-06T03:26:41.152Z,95757.42
2018-12-06T03:27:43.595Z,95754.20
2018-12-06T03:28:46.038Z,95755.16
2018-12-06T03:29:48.488Z,95754.20
2018-12-06T03:30:50.926Z,95754.41
2018-12-06T03:31:53.386Z,95757.42
2018-12-06T03:32:55.840Z,95755.01
2018-12-06T03:33:58.271Z,95750.66
2018-12-06T03:35:00.717Z,95755.90
2018-12-06T03:36:03.176Z,95753.48
2018-12-06T03:37:05.712Z,95757.42
2018-12-06T03:38:08.177Z,95757.45
2018-12-06T03:39:10.634Z,95749.55
2018-12-06T03:40:13.297Z,95749.71
2018-12-06T03:41:15.736Z,95747.32
2018-12-06T03:42:18.484Z,95749.95
2018-12-06T03:43:20.948Z,95749.23
2018-12-06T03:44:23.394Z,95748.47
2018-12-06T03:45:25.849Z,95752.05
2018-12-06T03:46:28.305Z,95751.12
2018-12-06T03:47:30.772Z,95756.20
2018-12-06T03:48:33.218Z,95753.41
2018-12-06T03:49:35.692Z,95756.52
2018-12-06T03:50:38.142Z,95757.50
2018-12-06T03:51:40.596Z,95757.13
2018-12-06T03:52:43.046Z,95764.23
2018-12-06T03:53:45.490Z,95766.70
2018-12-06T03:54:47.959Z,95764.29
2018-12-06T03:55:50.424Z,95760.88
2018-12-06T03:56:52.881Z,95760.12
2018-12-06T03:57:55.340Z,95752.20
2018-12-06T03:58:57.796Z,95755.74
2018-12-06T04:00:00.249Z,95751.65
2018-12-06T04:01:02.689Z,95747.58
2018-12-06T04:02:05.139Z,95754.20
2018-12-06T04:03:07.621Z,95753.28
2018-12-06T04:04:10.078Z,95747.12
2018-12-06T04:05:12.518Z,95747.33
2018-12-06T04:06:14.965Z,95751.81
2018-12-06T04:07:17.403Z,95745.28
2018-12-06T04:08:19.859Z,95746.41
2018-12-06T04:09:22.315Z,95739.64
2018-12-06T04:10:24.748Z,95739.64
2018-12-06T04:11:27.194Z,95742.66
2018-12-06T04:12:29.631Z,95736.67
2018-12-06T04:13:32.101Z,95740.37
2018-12-06T04:14:34.565Z,95728.20
2018-12-06T04:15:37.094Z,95726.11
2018-12-06T04:16:39.534Z,95725.28
2018-12-06T04:17:42.468Z,95731.22
2018-12-06T04:18:44.916Z,95726.34
2018-12-06T04:19:47.378Z,95726.94
2018-12-06T04:20:49.823Z,95732.23
2018-12-06T04:21:52.280Z,95735.38
2018-12-06T04:22:54.710Z,95728.25
2018-12-06T04:23:57.167Z,95735.77
2018-12-06T04:24:59.616Z,95723.00
2018-12-06T04:26:02.118Z,95724.42
2018-12-06T04:27:04.592Z,95728.18
2018-12-06T04:28:07.081Z,95721.25
2018-12-06T04:29:09.726Z,95728.05
2018-12-06T04:30:12.423Z,95724.63
2018-12-06T04:31:14.886Z,95726.42
2018-12-06T04:32:17.600Z,95727.05
2018-12-06T04:33:20.347Z,95718.08
2018-12-06T04:34:22.838Z,95718.37
2018-12-06T04:35:25.642Z,95718.72
2018-12-06T04:36:28.092Z,95711.61
2018-12-06T04:37:30.554Z,95717.25
2018-12-06T04:38:33.016Z,95712.21
2018-12-06T04:39:35.500Z,95712.44
2018-12-06T04:40:37.955Z,95706.04
2018-12-06T04:41:40.470Z,95705.10
2018-12-06T04:42:42.955Z,95702.82
2018-12-06T04:43:45.417Z,95705.81
2018-12-06T04:44:47.895Z,95698.12
2018-12-06T04:45:50.324Z,95693.30
2018-12-06T04:46:52.752Z,95696.31
2018-12-06T04:47:55.186Z,95698.23
2018-12-06T04:48:57.725Z,95697.72
2018-12-06T04:50:00.181Z,95694.00
2018-12-06T04:51:02.645Z,95704.52
2018-12-06T04:52:05.084Z,95705.33
2018-12-06T04:53:07.528Z,95697.46
2018-12-06T04:54:09.984Z,95694.47
2018-12-06T04:55:12.460Z,95702.94
2018-12-06T04:56:14.892Z,95704.63
2018-12-06T04:57:17.319Z,95702.22
2018-12-06T04:58:19.751Z,95701.84
2018-12-06T04:59:22.213Z,95707.31
2018-12-06T05:00:24.659Z,95702.63
2018-12-06T05:01:27.089Z,95696.66
2018-12-06T05:02:29.531Z,95706.23
2018-12-06T05:03:31.971Z,95701.37
2018-12-06T05:04:34.421Z,95704.97
2018-12-06T05:05:36.860Z,95703.49
2018-12-06T05:06:39.294Z,95704.05
2018-12-06T05:07:41.745Z,95708.75
2018-12-06T05:09:04.655Z,95703.70
2018-12-06T05:10:07.529Z,95713.46
2018-12-06T05:11:09.975Z,95718.33
2018-12-06T05:12:12.411Z,95715.88
2018-12-06T05:13:14.854Z,95723.92
2018-12-06T05:14:17.336Z,95724.89
2018-12-06T05:15:19.796Z,95725.44
2018-12-06T05:16:22.252Z,95724.33
2018-12-06T05:17:24.717Z,95718.50
2018-12-06T05:18:27.151Z,95727.90
2018-12-06T05:19:29.604Z,95716.84
2018-12-06T05:20:32.053Z,95721.72
2018-12-06T05:21:34.488Z,95729.22
2018-12-06T05:22:36.938Z,95727.91
2018-12-06T05:23:39.371Z,95738.41
2018-12-06T05:24:41.829Z,95733.37
2018-12-06T05:25:44.289Z,95733.75
2018-12-06T05:26:46.790Z,95741.08
2018-12-06T05:27:49.220Z,95742.95
2018-12-06T05:28:51.654Z,95741.64
2018-12-06T05:29:54.121Z,95744.83
2018-12-06T05:30:56.576Z,95750.67
2018-12-06T05:31:59.023Z,95755.55
2018-12-06T05:33:01.470Z,95755.00
2018-12-06T05:34:03.909Z,95763.09
2018-12-06T05:35:06.556Z,95761.19
2018-12-06T05:36:09.025Z,95757.08
2018-12-06T05:37:11.480Z,95757.29
2018-12-06T05:38:14.007Z,95768.17
2018-12-06T05:39:16.497Z,95768.52
2018-12-06T05:40:18.960Z,95755.38
2018-12-06T05:41:21.495Z,95755.42
2018-12-06T05:42:23.947Z,95756.16
2018-12-06T05:43:26.404Z,95755.05
2018-12-06T05:44:28.876Z,95746.27
2018-12-06T05:45:31.349Z,95747.37
2018-12-06T05:46:33.803Z,95748.69
2018-12-06T05:47:36.245Z,95750.00
2018-12-06T05:48:38.691Z,95757.16
2018-12-06T05:49:41.141Z,95755.05
2018-12-06T05:50:43.604Z,95756.77
2018-12-06T05:51:46.042Z,95757.84
2018-12-06T05:52:48.481Z,95755.55
2018-12-06T05:53:50.935Z,95753.67
2018-12-06T05:54:53.374Z,95751.75
2018-12-06T05:55:55.840Z,95747.27
2018-12-06T05:56:58.285Z,95739.01
2018-12-06T05:58:00.748Z,95736.77
2018-12-06T05:59:03.203Z,95744.83
2018-12-06T06:00:07.119Z,95743.17
2018-12-06T06:01:09.584Z,95748.81
2018-12-06T06:02:12.077Z,95756.70
2018-12-06T06:03:14.515Z,95763.09
2018-12-06T06:04:16.959Z,95761.23
2018-12-06T06:05:19.393Z,95762.17
2018-12-06T06:06:21.904Z,95763.34
2018-12-06T06:07:24.344Z,95766.95
2018-12-06T06:08:26.808Z,95756.27
2018-12-06T06:09:29.310Z,95760.55
2018-12-06T06:10:31.750Z,95763.19
2018-12-06T06:11:34.220Z,95758.48
2018-12-06T06:12:36.692Z,95760.09
2018-12-06T06:13:39.152Z,95756.70
2018-12-06T06:14:41.590Z,95757.84
2018-12-06T06:15:44.032Z,95758.78
2018-12-06T06:16:46.496Z,95757.53
2018-12-06T06:17:48.947Z,95760.92
2018-12-06T06:18:51.463Z,95769.50
2018-12-06T06:19:53.908Z,95770.29
2018-12-06T06:20:56.366Z,95770.22
2018-12-06T06:21:59.060Z,95770.98
2018-12-06T06:23:02.394Z,95774.80
2018-12-06T06:24:04.832Z,95775.76
2018-12-06T06:25:07.461Z,95781.23
2018-12-06T06:26:09.979Z,95779.55
2018-12-06T06:27:12.434Z,95780.11
2018-12-06T06:28:14.887Z,95774.89
2018-12-06T06:29:17.352Z,95783.16
2018-12-06T06:30:19.888Z,95781.47
2018-12-06T06:31:22.349Z,95778.28
2018-12-06T06:32:24.807Z,95783.88
2018-12-06T06:33:27.413Z,95781.42
2018-12-06T06:34:29.917Z,95790.05
2018-12-06T06:35:32.437Z,95792.13
2018-12-06T06:36:34.917Z,95790.05
2018-12-06T06:37:37.388Z,95790.05
2018-12-06T06:38:39.861Z,95786.83
2018-12-06T06:39:42.308Z,95788.92
2018-12-06T06:40:44.746Z,95793.06
2018-12-06T06:41:47.226Z,95798.87
2018-12-06T06:42:49.779Z,95802.22
2018-12-06T06:43:52.229Z,95795.47
2018-12-06T06:44:54.797Z,95799.03
2018-12-06T06:45:57.239Z,95804.67
2018-12-06T06:46:59.712Z,95805.83
2018-12-06T06:48:02.245Z,95808.45
2018-12-06T06:49:04.767Z,95815.95
2018-12-06T06:50:07.410Z,95818.96
2018-12-06T06:51:10.139Z,95819.89
2018-12-06T06:52:12.601Z,95822.91
2018-12-06T06:53:15.200Z,95820.73
2018-12-06T06:54:17.729Z,95820.52
2018-12-06T06:55:20.182Z,95822.25
2018-12-06T06:56:22.640Z,95823.98
2018-12-06T06:57:26.278Z,95819.21
2018-12-06T06:58:28.755Z,95830.48
2018-12-06T06:59:31.328Z,95821.36
2018-12-06T07:00:33.783Z,95820.43
2018-12-06T07:01:36.216Z,95818.92
2018-12-06T07:02:38.671Z,95820.45
2018-12-06T07:03:41.162Z,95820.84
2018-12-06T07:04:43.652Z,95821.44
2018-12-06T07:05:46.089Z,95823.69
2018-12-06T07:06:48.536Z,95828.39
2018-12-06T07:07:50.984Z,95819.94
2018-12-06T07:08:53.452Z,95820.29
2018-12-06T07:09:55.907Z,95820.66
2018-12-06T07:10:58.388Z,95826.30
2018-12-06T07:12:00.842Z,95816.12
2018-12-06T07:13:03.303Z,95820.22
2018-12-06T07:14:05.764Z,95817.20
2018-12-06T07:15:08.417Z,95827.51
2018-12-06T07:16:10.948Z,95822.38
2018-12-06T07:17:13.391Z,95820.34
2018-12-06T07:18:15.848Z,95819.03
2018-12-06T07:19:18.309Z,95816.27
2018-12-06T07:20:20.756Z,95814.03
2018-12-06T07:21:23.230Z,95813.88
2018-12-06T07:22:25.708Z,95815.80
2018-12-06T07:23:28.157Z,95816.56
2018-12-06T07:24:30.628Z,95819.96
2018-12-06T07:25:33.096Z,95818.14
2018-12-06T07:26:36.363Z,95819.80
2018-12-06T07:27:38.877Z,95818.09
2018-12-06T07:28:41.354Z,95817.88
2018-12-06T07:29:43.807Z,95820.28
2018-12-06T07:30:46.261Z,95817.41
2018-12-06T07:31:48.706Z,95818.83
2018-12-06T07:32:51.333Z,95814.88
2018-12-06T07:33:53.792Z,95811.53
2018-12-06T07:34:56.270Z,95813.66
2018-12-06T07:35:58.772Z,95817.48
2018-12-06T07:37:01.274Z,95821.82
2018-12-06T07:38:03.820Z,95820.72
2018-12-06T07:39:06.949Z,95818.86
2018-12-06T07:40:09.616Z,95811.36
2018-12-06T07:41:12.117Z,95816.82
2018-12-06T07:42:14.628Z,95819.63
2018-12-06T07:43:17.073Z,95813.81
2018-12-06T07:44:19.521Z,95813.43
2018-12-06T07:45:21.983Z,95818.47
2018-12-06T07:46:24.451Z,95815.25
2018-12-06T07:48:35.819Z,95817.49
2018-12-06T07:49:39.718Z,95812.57
2018-12-06T07:50:42.220Z,95811.26
2018-12-06T07:51:44.688Z,95807.91
2018-12-06T07:52:47.156Z,95811.14
2018-12-06T07:53:49.638Z,95815.13
2018-12-06T07:54:52.092Z,95808.23
2018-12-06T07:55:54.648Z,95810.14
2018-12-06T07:56:57.102Z,95808.83
2018-12-06T07:57:59.560Z,95805.27
2018-12-06T07:59:02.025Z,95805.86
2018-12-06T08:00:07.564Z,95805.27
2018-12-06T08:01:10.196Z,95810.18
2018-12-06T08:02:12.660Z,95806.80
2018-12-06T08:03:15.106Z,95804.00
2018-12-06T08:04:17.544Z,95798.19
2018-12-06T08:05:20.027Z,95804.94
2018-12-06T08:06:22.504Z,95807.39
2018-12-06T08:07:25.070Z,95809.81
2018-12-06T08:08:27.530Z,95807.94
2018-12-06T08:09:29.992Z,95808.27
2018-12-06T08:10:32.432Z,95815.78
2018-12-06T08:11:34.900Z,95812.94
2018-12-06T08:12:37.370Z,95824.05
2018-12-06T08:13:39.806Z,95823.67
2018-12-06T08:14:42.279Z,95818.63
2018-12-06T08:15:44.803Z,95821.63
2018-12-06T08:16:47.286Z,95821.81
2018-12-06T08:17:49.758Z,95819.94
2018-12-06T08:18:52.228Z,95820.31
2018-12-06T08:19:54.680Z,95824.27
2018-12-06T08:20:57.224Z,95828.80
2018-12-06T08:21:59.749Z,95831.99
2018-12-06T08:23:02.278Z,95829.19
2018-12-06T08:24:04.720Z,95830.89
2018-12-06T08:25:07.403Z,95833.89
2018-12-06T08:26:09.844Z,95838.02
2018-12-06T08:27:12.319Z,95833.52
2018-12-06T08:28:14.770Z,95835.42
2018-12-06T08:29:17.218Z,95833.14
2018-12-06T08:30:19.661Z,95835.89
2018-12-06T08:31:22.144Z,95830.03
2018-12-06T08:32:24.651Z,95834.02
2018-12-06T08:33:27.121Z,95836.66
2018-12-06T08:34:29.750Z,95838.39
2018-12-06T08:35:32.194Z,95846.84
2018-12-06T08:36:34.632Z,95844.59
2018-12-06T08:37:37.109Z,95847.05
2018-12-06T08:38:39.550Z,95845.77
2018-12-06T08:39:41.980Z,95845.78
2018-12-06T08:40:44.429Z,95848.23
2018-12-06T08:41:46.871Z,95847.13
2018-12-06T08:42:49.325Z,95853.28
2018-12-06T08:43:51.793Z,95846.70
2018-12-06T08:44:54.248Z,95854.94
2018-12-06T08:45:56.686Z,95855.16
2018-12-06T08:46:59.131Z,95861.95
2018-12-06T08:48:01.595Z,95860.84
2018-12-06T08:49:04.123Z,95861.19
2018-12-06T08:50:06.816Z,95858.00
2018-12-06T08:51:09.255Z,95862.71
2018-12-06T08:52:11.711Z,95873.06
2018-12-06T08:53:14.176Z,95866.11
2018-12-06T08:54:16.616Z,95868.69
2018-12-06T08:55:19.061Z,95876.63
2018-12-06T08:56:21.530Z,95881.16
2018-12-06T08:57:23.993Z,95880.49
2018-12-06T08:58:26.498Z,95884.42
2018-12-06T08:59:28.967Z,95877.61
2018-12-06T09:00:31.426Z,95882.92
2018-12-06T09:01:33.924Z,95878.42
2018-12-06T09:02:36.444Z,95885.91
2018-12-06T09:03:38.932Z,95883.08
2018-12-06T09:04:41.404Z,95883.81
2018-12-06T09:05:43.838Z,95887.53
2018-12-06T09:06:46.292Z,95886.77
2018-12-06T09:07:48.740Z,95892.39
2018-12-06T09:08:51.194Z,95892.39
2018-12-06T09:09:53.663Z,95891.84
2018-12-06T09:10:56.105Z,95894.09
2018-12-06T09:11:58.537Z,95894.65
2018-12-06T09:13:00.968Z,95900.23
2018-12-06T09:14:03.600Z,95899.79
2018-12-06T09:15:06.552Z,95900.92
2018-12-06T09:16:08.985Z,95910.73
2018-12-06T09:17:11.434Z,95907.72
2018-12-06T09:18:13.880Z,95910.13
2018-12-06T09:19:16.324Z,95906.41
2018-12-06T09:20:18.791Z,95910.77
2018-12-06T09:21:21.233Z,95912.99
2018-12-06T09:22:24.548Z,95908.90
2018-12-06T09:23:27.186Z,95908.95
2018-12-06T09:24:29.656Z,95920.02
2018-12-06T09:25:32.120Z,95917.97
2018-12-06T09:26:34.554Z,95908.45
2018-12-06T09:27:37.000Z,95915.37
2018-12-06T09:28:39.484Z,95919.28
2018-12-06T09:29:41.968Z,95914.34
2018-12-06T09:30:44.419Z,95920.94
2018-12-06T09:31:46.867Z,95915.92
2018-12-06T09:32:49.339Z,95924.72
2018-12-06T09:34:02.511Z,95924.35
2018-12-06T09:35:05.134Z,95926.03
2018-12-06T09:36:07.572Z,95931.28
2018-12-06T09:37:10.020Z,95930.70
2018-12-06T09:38:12.539Z,95928.34
2018-12-06T09:39:15.057Z,95927.06
2018-12-06T09:40:17.595Z,95934.69
2018-12-06T09:41:20.075Z,95931.55
2018-12-06T09:42:22.510Z,95931.16
2018-12-06T09:43:24.972Z,95936.46
2018-12-06T09:44:27.412Z,95931.79
2018-12-06T09:45:29.966Z,95937.09
2018-12-06T09:46:33.251Z,95938.28
2018-12-06T09:47:35.780Z,95935.11
2018-12-06T09:48:38.268Z,95936.28
2018-12-06T09:49:40.755Z,95935.73
2018-12-06T09:50:43.210Z,95935.89
2018-12-06T09:51:45.704Z,95934.55
2018-12-06T09:52:48.220Z,95927.78
2018-12-06T09:53:50.657Z,95933.82
2018-12-06T09:54:53.318Z,95934.77
2018-12-06T09:55:55.782Z,95931.66
2018-12-06T09:56:58.223Z,95933.61
2018-12-06T09:58:00.696Z,95921.95
2018-12-06T09:59:03.186Z,95928.73
2018-12-06T10:00:08.876Z,95929.36
2018-12-06T10:01:11.419Z,95932.38
2018-12-06T10:02:13.860Z,95926.20
2018-12-06T10:03:16.348Z,95931.06
2018-12-06T10:04:18.785Z,95925.70
2018-12-06T10:05:21.272Z,95928.20
2018-12-06T10:06:23.737Z,95924.20
2018-12-06T10:07:26.203Z,95924.89
2018-12-06T10:08:28.729Z,95924.63
2018-12-06T10:09:31.173Z,95926.84
2018-12-06T10:10:33.636Z,95924.84
2018-12-06T10:11:36.108Z,95926.94
2018-12-06T10:12:38.756Z,95928.12
2018-12-06T10:13:41.425Z,95927.06
2018-12-06T10:14:43.885Z,95928.36
2018-12-06T10:15:46.389Z,95921.95
2018-12-06T10:16:48.960Z,95924.50
2018-12-06T10:17:51.397Z,95919.44
2018-12-06T10:18:53.920Z,95924.50
2018-12-06T10:19:56.369Z,95927.80
2018-12-06T10:20:58.839Z,95921.40
2018-12-06T10:22:01.338Z,95930.75
2018-12-06T10:23:03.816Z,95922.34
2018-12-06T10:24:06.267Z,95923.63
2018-12-06T10:25:08.735Z,95922.55
2018-12-06T10:26:11.217Z,95923.47
2018-12-06T10:27:13.668Z,95920.45
2018-12-06T10:28:16.118Z,95921.38
2018-12-06T10:29:18.575Z,95924.16
2018-12-06T10:30:21.019Z,95920.22
2018-12-06T10:31:23.513Z,95924.70
2018-12-06T10:32:26.113Z,95919.64
2018-12-06T10:33:28.556Z,95924.73
2018-12-06T10:34:31.021Z,95927.34
2018-12-06T10:35:33.489Z,95925.94
2018-12-06T10:36:35.978Z,95927.31
2018-12-06T10:37:38.476Z,95924.50
2018-12-06T10:38:40.936Z,95930.48
2018-12-06T10:39:43.410Z,95932.42
2018-12-06T10:40:45.875Z,95932.06
2018-12-06T10:41:48.335Z,95935.87
2018-12-06T10:42:50.824Z,95932.71
2018-12-06T10:43:53.273Z,95933.63
2018-12-06T10:44:55.767Z,95944.38
2018-12-06T10:45:58.237Z,95941.20
2018-12-06T10:47:00.779Z,95944.95
2018-12-06T10:48:03.292Z,95947.39
2018-12-06T10:49:05.736Z,95951.38
2018-12-06T10:50:08.263Z,95949.58
2018-12-06T10:53:22.494Z,95942.56
2018-12-06T10:54:24.934Z,95943.88
2018-12-06T10:55:27.604Z,95944.34
2018-12-06T10:56:30.049Z,95944.77
2018-12-06T10:57:32.621Z,95940.27
2018-12-06T10:58:35.081Z,95949.99
2018-12-06T10:59:37.525Z,95943.22
2018-12-06T11:00:45.696Z,95946.03
2018-12-06T11:01:50.185Z,95947.97
2018-12-06T11:02:54.670Z,95940.53
2018-12-06T11:04:00.189Z,95941.84
2018-12-06T11:05:02.650Z,95950.09
2018-12-06T11:06:05.114Z,95943.78
2018-12-06T11:07:07.688Z,95948.70
2018-12-06T11:08:10.214Z,95950.11
2018-12-06T11:09:12.893Z,95953.13
2018-12-06T11:10:15.481Z,95949.95
2018-12-06T11:11:17.996Z,95949.72
2018-12-06T11:12:20.603Z,95953.56
2018-12-06T11:13:23.063Z,95953.97
2018-12-06T11:14:25.537Z,95952.92
2018-12-06T11:15:28.023Z,95956.53
2018-12-06T11:16:30.465Z,95955.28
2018-12-06T11:17:32.933Z,95954.89
2018-12-06T11:18:35.426Z,95959.98
2018-12-06T11:19:38.796Z,95957.89
2018-12-06T11:20:41.258Z,95955.79
2018-12-06T11:21:43.793Z,95955.28
2018-12-06T11:22:46.320Z,95961.30
2018-12-06T11:23:48.770Z,95959.48
2018-12-06T11:24:51.354Z,95956.05
2018-12-06T11:25:53.833Z,95957.89
2018-12-06T11:26:56.309Z,95963.67
2018-12-06T11:27:58.790Z,95962.59
2018-12-06T11:29:01.248Z,95958.52
2018-12-06T11:30:05.973Z,95960.05
2018-12-06T11:31:08.539Z,95959.84
2018-12-06T11:32:10.976Z,95965.70
2018-12-06T11:33:13.419Z,95961.09
2018-12-06T11:34:15.876Z,95963.92
2018-12-06T11:35:18.457Z,95971.29
2018-12-06T11:36:20.909Z,95969.47
2018-12-06T11:37:23.368Z,95975.09
2018-12-06T11:38:25.842Z,95970.66
2018-12-06T11:39:28.364Z,95984.19
2018-12-06T11:40:30.842Z,95975.10
2018-12-06T11:41:33.373Z,95976.05
2018-12-06T11:42:35.865Z,95969.27
2018-12-06T11:43:38.319Z,95970.53
2018-12-06T11:44:40.799Z,95967.72
2018-12-06T11:45:43.277Z,95970.05
2018-12-06T11:46:45.793Z,95969.84
2018-12-06T11:47:48.248Z,95961.68
2018-12-06T11:48:50.706Z,95956.82
2018-12-06T11:49:53.178Z,95967.25
2018-12-06T11:50:55.647Z,95961.35
2018-12-06T11:51:58.095Z,95961.67
2018-12-06T11:53:00.545Z,95961.72
2018-12-06T11:54:03.084Z,95961.17
2018-12-06T11:55:05.656Z,95964.05
2018-12-06T11:56:08.204Z,95965.59
2018-12-06T11:57:10.754Z,95958.48
2018-12-06T11:58:13.263Z,95962.41
2018-12-06T11:59:15.700Z,95960.31
2018-12-06T12:00:18.151Z,95959.95
2018-12-06T12:01:20.630Z,95953.61
2018-12-06T12:02:23.075Z,95951.20
2018-12-06T12:03:25.541Z,95951.05
2018-12-06T12:04:28.004Z,95952.58
2018-12-06T12:05:30.492Z,95944.66
2018-12-06T12:06:32.951Z,95955.23
2018-12-06T12:07:35.416Z,95950.91
2018-12-06T12:08:37.863Z,95943.23
2018-12-06T12:09:40.368Z,95944.56
2018-12-06T12:10:42.845Z,95946.25
2018-12-06T12:11:45.305Z,95940.66
2018-12-06T12:12:47.772Z,95939.57
2018-12-06T12:13:50.219Z,95937.11
2018-12-06T12:14:52.668Z,95934.92
2018-12-06T12:15:55.132Z,95931.75
2018-12-06T12:16:57.585Z,95935.88
2018-12-06T12:18:00.032Z,95928.58
2018-12-06T12:19:02.477Z,95929.95